الصفحة الرئيسية
METAR-TAF:

METAR-TAF

مطار :

Tajima, اليابان

دائرة عرض: 35-31N, خط طول: 134-48E, ارتفاع: 210 متر

مراقبة الطقس الحالي

تاريخ ووقت الإصدار 1ساعة و 9 دقيقة قبل الساعة 04:00UTC
ريح 4 عقدة من الجنوب/الجنوب الشرقي, الاتجاه يتراوح بين الجنوب الشرقي و الجنوب/الجنوب الغربي
درجة الحرارة 24°درجة مئوية
الرطوبة 65%
ضغط 1009 hPa
الرؤية 10 كم أو أكثر
الغيوم لا تقل 1500 م ولا وجود لمزنة ركامية السحاب الأسود

METAR: RJBT 170400Z 16004KT 130V200 CAVOK 24/17 Q1009

زمن: 14:09 (05:09 UTC)


TAF: مفقودة

أرصاد الطقس والتوقعات من أكثر من 4000 مطار (تقارير الطقس للمطار METAR والتنبؤ بالطقس بالمطارTAF).

المحطات المتاحة هي النقط الصفراء والحمراء على الخريطة.

حرك المؤشر فوق النقطة لمعرفة اسم المحطة.

ثم انقر لمعرفة أرصاد وتوقعات الطقس.

لتغيير الخارطة: اضغط على الأزرار الخضراء مع رمز الصليب الأسود للتكبير. على الزر الأخضر مع شرطة للتصغير، أو على الأسهم الخضراء للخرائط المجاورة.


METAR-TAF: